sensor_id;sensor_type;location;lat;lon;timestamp;P1;durP1;ratioP1;P2;durP2;ratioP2
35803;SDS011;21924;51.934;7.414;2024-01-15T00:00:56;27.88;;;12.40;;
35803;SDS011;21924;51.934;7.414;2024-01-15T00:03:40;38.25;;;17.02;;
35803;SDS011;21924;51.934;7.414;2024-01-15T00:06:25;29.35;;;14.95;;
35803;SDS011;21924;51.934;7.414;2024-01-15T00:09:10;37.73;;;15.53;;
35803;SDS011;21924;51.934;7.414;2024-01-15T00:11:55;36.67;;;14.63;;
35803;SDS011;21924;51.934;7.414;2024-01-15T00:14:39;27.98;;;14.70;;
35803;SDS011;21924;51.934;7.414;2024-01-15T00:17:23;37.25;;;14.88;;
35803;SDS011;21924;51.934;7.414;2024-01-15T00:20:07;29.60;;;13.63;;
35803;SDS011;21924;51.934;7.414;2024-01-15T00:22:52;28.60;;;15.55;;
35803;SDS011;21924;51.934;7.414;2024-01-15T00:25:36;34.63;;;13.63;;
35803;SDS011;21924;51.934;7.414;2024-01-15T00:28:20;29.55;;;14.50;;
35803;SDS011;21924;51.934;7.414;2024-01-15T00:31:05;29.88;;;15.23;;
35803;SDS011;21924;51.934;7.414;2024-01-15T00:33:49;33.45;;;14.90;;
35803;SDS011;21924;51.934;7.414;2024-01-15T00:36:33;34.83;;;14.85;;
35803;SDS011;21924;51.934;7.414;2024-01-15T00:39:18;32.85;;;16.08;;
35803;SDS011;21924;51.934;7.414;2024-01-15T00:42:02;34.90;;;16.30;;
35803;SDS011;21924;51.934;7.414;2024-01-15T00:44:46;30.23;;;14.63;;
35803;SDS011;21924;51.934;7.414;2024-01-15T00:47:31;35.35;;;16.35;;
35803;SDS011;21924;51.934;7.414;2024-01-15T00:50:15;36.47;;;17.17;;
35803;SDS011;21924;51.934;7.414;2024-01-15T00:53:02;36.78;;;14.75;;
35803;SDS011;21924;51.934;7.414;2024-01-15T00:55:46;33.90;;;14.32;;
35803;SDS011;21924;51.934;7.414;2024-01-15T00:58:31;31.45;;;14.38;;
35803;SDS011;21924;51.934;7.414;2024-01-15T01:01:15;28.83;;;14.32;;
35803;SDS011;21924;51.934;7.414;2024-01-15T01:03:59;35.65;;;15.40;;
35803;SDS011;21924;51.934;7.414;2024-01-15T01:06:44;27.80;;;14.50;;
35803;SDS011;21924;51.934;7.414;2024-01-15T01:09:28;33.28;;;13.93;;
35803;SDS011;21924;51.934;7.414;2024-01-15T01:12:14;33.67;;;13.93;;
35803;SDS011;21924;51.934;7.414;2024-01-15T01:14:58;37.13;;;15.38;;
35803;SDS011;21924;51.934;7.414;2024-01-15T01:17:42;39.15;;;14.82;;
35803;SDS011;21924;51.934;7.414;2024-01-15T01:20:27;31.60;;;14.88;;
35803;SDS011;21924;51.934;7.414;2024-01-15T01:23:11;34.35;;;13.73;;
35803;SDS011;21924;51.934;7.414;2024-01-15T01:25:55;29.45;;;12.80;;
35803;SDS011;21924;51.934;7.414;2024-01-15T01:28:40;42.10;;;16.33;;
35803;SDS011;21924;51.934;7.414;2024-01-15T01:31:24;40.53;;;14.52;;
35803;SDS011;21924;51.934;7.414;2024-01-15T01:34:08;37.15;;;15.52;;
35803;SDS011;21924;51.934;7.414;2024-01-15T01:36:53;31.98;;;14.82;;
35803;SDS011;21924;51.934;7.414;2024-01-15T01:39:37;32.60;;;13.57;;
35803;SDS011;21924;51.934;7.414;2024-01-15T01:42:21;32.30;;;13.10;;
35803;SDS011;21924;51.934;7.414;2024-01-15T01:45:05;31.55;;;13.32;;
35803;SDS011;21924;51.934;7.414;2024-01-15T01:47:50;35.45;;;14.35;;
35803;SDS011;21924;51.934;7.414;2024-01-15T01:50:34;33.85;;;12.90;;
35803;SDS011;21924;51.934;7.414;2024-01-15T01:53:19;29.30;;;13.23;;
35803;SDS011;21924;51.934;7.414;2024-01-15T01:56:03;30.60;;;12.20;;
35803;SDS011;21924;51.934;7.414;2024-01-15T01:58:48;26.30;;;12.30;;
35803;SDS011;21924;51.934;7.414;2024-01-15T02:01:34;31.25;;;12.35;;
35803;SDS011;21924;51.934;7.414;2024-01-15T02:04:19;30.85;;;12.82;;
35803;SDS011;21924;51.934;7.414;2024-01-15T02:07:05;24.80;;;12.10;;
35803;SDS011;21924;51.934;7.414;2024-01-15T02:09:49;23.83;;;12.25;;
35803;SDS011;21924;51.934;7.414;2024-01-15T02:12:34;35.85;;;11.38;;
35803;SDS011;21924;51.934;7.414;2024-01-15T02:15:18;42.10;;;12.23;;
35803;SDS011;21924;51.934;7.414;2024-01-15T02:18:03;30.02;;;13.50;;
35803;SDS011;21924;51.934;7.414;2024-01-15T02:20:50;28.70;;;12.20;;
35803;SDS011;21924;51.934;7.414;2024-01-15T02:23:34;46.05;;;13.52;;
35803;SDS011;21924;51.934;7.414;2024-01-15T02:26:19;37.85;;;13.18;;
35803;SDS011;21924;51.934;7.414;2024-01-15T02:29:03;28.40;;;13.13;;
35803;SDS011;21924;51.934;7.414;2024-01-15T02:31:50;42.83;;;15.52;;
35803;SDS011;21924;51.934;7.414;2024-01-15T02:34:34;31.23;;;13.93;;
35803;SDS011;21924;51.934;7.414;2024-01-15T02:37:19;40.45;;;14.75;;
35803;SDS011;21924;51.934;7.414;2024-01-15T02:43:51;28.33;;;14.38;;
35803;SDS011;21924;51.934;7.414;2024-01-15T02:53:57;34.25;;;13.30;;
35803;SDS011;21924;51.934;7.414;2024-01-15T02:56:42;40.05;;;14.15;;
35803;SDS011;21924;51.934;7.414;2024-01-15T02:59:26;32.70;;;14.13;;
35803;SDS011;21924;51.934;7.414;2024-01-15T03:02:10;32.75;;;13.25;;
35803;SDS011;21924;51.934;7.414;2024-01-15T03:04:55;42.20;;;15.43;;
35803;SDS011;21924;51.934;7.414;2024-01-15T03:07:39;23.38;;;13.88;;
35803;SDS011;21924;51.934;7.414;2024-01-15T03:10:23;29.52;;;13.52;;
35803;SDS011;21924;51.934;7.414;2024-01-15T03:13:07;32.75;;;12.85;;
35803;SDS011;21924;51.934;7.414;2024-01-15T03:15:52;44.72;;;13.90;;
35803;SDS011;21924;51.934;7.414;2024-01-15T03:18:36;34.67;;;13.65;;
35803;SDS011;21924;51.934;7.414;2024-01-15T03:21:20;27.60;;;13.30;;
35803;SDS011;21924;51.934;7.414;2024-01-15T03:24:05;29.60;;;13.07;;
35803;SDS011;21924;51.934;7.414;2024-01-15T03:26:49;36.55;;;13.32;;
35803;SDS011;21924;51.934;7.414;2024-01-15T03:29:33;26.75;;;11.60;;
35803;SDS011;21924;51.934;7.414;2024-01-15T03:32:18;27.80;;;11.75;;
35803;SDS011;21924;51.934;7.414;2024-01-15T03:35:03;25.65;;;11.30;;
35803;SDS011;21924;51.934;7.414;2024-01-15T03:37:48;28.55;;;10.48;;
35803;SDS011;21924;51.934;7.414;2024-01-15T03:40:32;25.88;;;10.38;;
35803;SDS011;21924;51.934;7.414;2024-01-15T03:43:16;29.88;;;11.02;;
35803;SDS011;21924;51.934;7.414;2024-01-15T03:46:01;20.58;;;10.07;;
35803;SDS011;21924;51.934;7.414;2024-01-15T03:48:45;27.75;;;11.48;;
35803;SDS011;21924;51.934;7.414;2024-01-15T03:51:29;20.52;;;10.25;;
35803;SDS011;21924;51.934;7.414;2024-01-15T03:54:14;28.83;;;12.95;;
35803;SDS011;21924;51.934;7.414;2024-01-15T03:56:58;19.08;;;10.98;;
35803;SDS011;21924;51.934;7.414;2024-01-15T03:59:42;23.83;;;11.43;;
35803;SDS011;21924;51.934;7.414;2024-01-15T04:02:27;34.28;;;11.15;;
35803;SDS011;21924;51.934;7.414;2024-01-15T04:05:11;28.15;;;11.80;;
35803;SDS011;21924;51.934;7.414;2024-01-15T04:07:55;21.05;;;10.52;;
35803;SDS011;21924;51.934;7.414;2024-01-15T04:10:39;24.40;;;10.40;;
35803;SDS011;21924;51.934;7.414;2024-01-15T04:13:24;21.00;;;10.35;;
35803;SDS011;21924;51.934;7.414;2024-01-15T04:16:08;33.30;;;12.68;;
35803;SDS011;21924;51.934;7.414;2024-01-15T04:18:53;28.05;;;11.40;;
35803;SDS011;21924;51.934;7.414;2024-01-15T04:21:37;31.45;;;12.30;;
35803;SDS011;21924;51.934;7.414;2024-01-15T04:24:22;22.30;;;9.52;;
35803;SDS011;21924;51.934;7.414;2024-01-15T04:27:06;34.45;;;11.18;;
35803;SDS011;21924;51.934;7.414;2024-01-15T04:29:51;23.08;;;10.02;;
35803;SDS011;21924;51.934;7.414;2024-01-15T04:32:35;23.90;;;9.55;;
35803;SDS011;21924;51.934;7.414;2024-01-15T04:35:19;33.22;;;11.77;;
35803;SDS011;21924;51.934;7.414;2024-01-15T04:38:04;21.35;;;10.23;;
35803;SDS011;21924;51.934;7.414;2024-01-15T04:40:48;17.58;;;10.93;;
35803;SDS011;21924;51.934;7.414;2024-01-15T04:43:32;20.98;;;10.88;;
35803;SDS011;21924;51.934;7.414;2024-01-15T04:46:17;27.65;;;11.18;;
35803;SDS011;21924;51.934;7.414;2024-01-15T04:49:01;24.02;;;10.95;;
35803;SDS011;21924;51.934;7.414;2024-01-15T04:51:45;25.02;;;10.65;;
35803;SDS011;21924;51.934;7.414;2024-01-15T04:54:30;27.13;;;11.48;;
35803;SDS011;21924;51.934;7.414;2024-01-15T04:57:14;23.85;;;10.70;;
35803;SDS011;21924;51.934;7.414;2024-01-15T04:59:58;38.22;;;11.23;;
35803;SDS011;21924;51.934;7.414;2024-01-15T05:02:42;22.75;;;10.48;;
35803;SDS011;21924;51.934;7.414;2024-01-15T05:05:27;23.95;;;9.70;;
35803;SDS011;21924;51.934;7.414;2024-01-15T05:08:11;23.10;;;10.25;;
35803;SDS011;21924;51.934;7.414;2024-01-15T05:10:55;19.63;;;9.88;;
35803;SDS011;21924;51.934;7.414;2024-01-15T05:13:39;22.08;;;9.20;;
35803;SDS011;21924;51.934;7.414;2024-01-15T05:16:23;24.05;;;10.20;;
35803;SDS011;21924;51.934;7.414;2024-01-15T05:19:08;26.10;;;10.27;;
35803;SDS011;21924;51.934;7.414;2024-01-15T05:21:52;17.40;;;8.55;;
35803;SDS011;21924;51.934;7.414;2024-01-15T05:24:36;27.58;;;10.60;;
35803;SDS011;21924;51.934;7.414;2024-01-15T05:27:21;24.38;;;10.55;;
35803;SDS011;21924;51.934;7.414;2024-01-15T05:30:05;26.25;;;11.05;;
35803;SDS011;21924;51.934;7.414;2024-01-15T05:32:59;22.52;;;10.52;;
35803;SDS011;21924;51.934;7.414;2024-01-15T05:39:26;25.05;;;9.40;;
35803;SDS011;21924;51.934;7.414;2024-01-15T05:42:10;15.95;;;9.90;;
35803;SDS011;21924;51.934;7.414;2024-01-15T05:44:54;23.13;;;10.75;;
35803;SDS011;21924;51.934;7.414;2024-01-15T05:47:38;25.40;;;10.32;;
35803;SDS011;21924;51.934;7.414;2024-01-15T05:50:23;26.25;;;10.77;;
35803;SDS011;21924;51.934;7.414;2024-01-15T05:53:07;20.90;;;10.05;;
35803;SDS011;21924;51.934;7.414;2024-01-15T05:55:51;17.65;;;10.48;;
35803;SDS011;21924;51.934;7.414;2024-01-15T05:58:35;24.02;;;11.20;;
35803;SDS011;21924;51.934;7.414;2024-01-15T06:01:20;18.80;;;10.15;;
35803;SDS011;21924;51.934;7.414;2024-01-15T06:04:04;22.00;;;10.25;;
35803;SDS011;21924;51.934;7.414;2024-01-15T06:06:48;22.42;;;9.93;;
35803;SDS011;21924;51.934;7.414;2024-01-15T06:09:32;16.20;;;9.55;;
35803;SDS011;21924;51.934;7.414;2024-01-15T06:12:17;17.77;;;9.93;;
35803;SDS011;21924;51.934;7.414;2024-01-15T06:15:01;29.92;;;9.27;;
35803;SDS011;21924;51.934;7.414;2024-01-15T06:17:46;19.17;;;9.32;;
35803;SDS011;21924;51.934;7.414;2024-01-15T06:20:30;27.08;;;11.45;;
35803;SDS011;21924;51.934;7.414;2024-01-15T06:23:14;14.77;;;10.23;;
35803;SDS011;21924;51.934;7.414;2024-01-15T06:25:59;18.65;;;10.32;;
35803;SDS011;21924;51.934;7.414;2024-01-15T06:28:43;19.90;;;10.45;;
35803;SDS011;21924;51.934;7.414;2024-01-15T06:31:28;18.73;;;8.68;;
35803;SDS011;21924;51.934;7.414;2024-01-15T06:34:12;14.32;;;10.02;;
35803;SDS011;21924;51.934;7.414;2024-01-15T06:36:58;18.17;;;8.95;;
35803;SDS011;21924;51.934;7.414;2024-01-15T06:39:43;15.43;;;9.20;;
35803;SDS011;21924;51.934;7.414;2024-01-15T06:42:27;21.25;;;9.50;;
35803;SDS011;21924;51.934;7.414;2024-01-15T06:45:11;13.55;;;8.45;;
35803;SDS011;21924;51.934;7.414;2024-01-15T06:47:55;16.73;;;9.50;;
35803;SDS011;21924;51.934;7.414;2024-01-15T06:50:40;17.80;;;8.38;;
35803;SDS011;21924;51.934;7.414;2024-01-15T06:53:24;12.02;;;8.45;;
35803;SDS011;21924;51.934;7.414;2024-01-15T06:56:09;17.48;;;8.38;;
35803;SDS011;21924;51.934;7.414;2024-01-15T06:58:53;9.45;;;8.20;;
35803;SDS011;21924;51.934;7.414;2024-01-15T07:01:37;14.27;;;8.00;;
35803;SDS011;21924;51.934;7.414;2024-01-15T07:04:22;15.30;;;8.00;;
35803;SDS011;21924;51.934;7.414;2024-01-15T07:07:06;11.43;;;7.90;;
35803;SDS011;21924;51.934;7.414;2024-01-15T07:09:50;11.10;;;7.97;;
35803;SDS011;21924;51.934;7.414;2024-01-15T07:12:36;9.75;;;6.95;;
35803;SDS011;21924;51.934;7.414;2024-01-15T07:15:20;10.02;;;7.63;;
35803;SDS011;21924;51.934;7.414;2024-01-15T07:18:05;17.35;;;7.50;;
35803;SDS011;21924;51.934;7.414;2024-01-15T07:20:49;21.02;;;9.10;;
35803;SDS011;21924;51.934;7.414;2024-01-15T07:23:33;19.85;;;9.52;;
35803;SDS011;21924;51.934;7.414;2024-01-15T07:26:17;21.23;;;10.27;;
35803;SDS011;21924;51.934;7.414;2024-01-15T07:29:02;12.57;;;9.88;;
35803;SDS011;21924;51.934;7.414;2024-01-15T07:31:48;15.55;;;9.23;;
35803;SDS011;21924;51.934;7.414;2024-01-15T07:34:36;13.23;;;9.70;;
35803;SDS011;21924;51.934;7.414;2024-01-15T07:37:20;21.92;;;10.20;;
35803;SDS011;21924;51.934;7.414;2024-01-15T07:40:04;19.77;;;9.50;;
35803;SDS011;21924;51.934;7.414;2024-01-15T07:42:50;15.52;;;9.10;;
35803;SDS011;21924;51.934;7.414;2024-01-15T07:45:35;17.48;;;8.95;;
35803;SDS011;21924;51.934;7.414;2024-01-15T07:48:19;29.55;;;10.20;;
35803;SDS011;21924;51.934;7.414;2024-01-15T07:51:04;17.33;;;9.52;;
35803;SDS011;21924;51.934;7.414;2024-01-15T07:53:48;19.48;;;10.25;;
35803;SDS011;21924;51.934;7.414;2024-01-15T07:56:32;23.85;;;9.35;;
35803;SDS011;21924;51.934;7.414;2024-01-15T07:59:17;15.40;;;9.48;;
35803;SDS011;21924;51.934;7.414;2024-01-15T08:02:01;18.33;;;9.07;;
35803;SDS011;21924;51.934;7.414;2024-01-15T08:04:46;21.13;;;9.60;;
35803;SDS011;21924;51.934;7.414;2024-01-15T08:07:30;17.08;;;9.23;;
35803;SDS011;21924;51.934;7.414;2024-01-15T08:10:14;18.00;;;9.52;;
35803;SDS011;21924;51.934;7.414;2024-01-15T08:12:59;23.35;;;9.40;;
35803;SDS011;21924;51.934;7.414;2024-01-15T08:15:44;13.23;;;8.73;;
35803;SDS011;21924;51.934;7.414;2024-01-15T08:18:28;20.55;;;10.90;;
35803;SDS011;21924;51.934;7.414;2024-01-15T08:21:12;17.67;;;8.35;;
35803;SDS011;21924;51.934;7.414;2024-01-15T08:23:57;11.45;;;8.35;;
35803;SDS011;21924;51.934;7.414;2024-01-15T08:26:43;13.35;;;8.45;;
35803;SDS011;21924;51.934;7.414;2024-01-15T08:29:27;11.52;;;7.82;;
35803;SDS011;21924;51.934;7.414;2024-01-15T08:32:12;15.43;;;8.73;;
35803;SDS011;21924;51.934;7.414;2024-01-15T08:34:58;11.98;;;8.77;;
35803;SDS011;21924;51.934;7.414;2024-01-15T08:37:43;13.68;;;9.60;;
35803;SDS011;21924;51.934;7.414;2024-01-15T08:40:27;13.27;;;8.02;;
35803;SDS011;21924;51.934;7.414;2024-01-15T08:43:11;15.32;;;9.73;;
35803;SDS011;21924;51.934;7.414;2024-01-15T08:45:56;28.50;;;9.35;;
35803;SDS011;21924;51.934;7.414;2024-01-15T08:48:40;20.02;;;8.45;;
35803;SDS011;21924;51.934;7.414;2024-01-15T08:51:25;17.65;;;8.25;;
35803;SDS011;21924;51.934;7.414;2024-01-15T08:54:09;15.48;;;8.18;;
35803;SDS011;21924;51.934;7.414;2024-01-15T08:56:53;17.25;;;8.07;;
35803;SDS011;21924;51.934;7.414;2024-01-15T08:59:38;13.25;;;9.02;;
35803;SDS011;21924;51.934;7.414;2024-01-15T09:02:22;13.05;;;9.00;;
35803;SDS011;21924;51.934;7.414;2024-01-15T09:05:07;13.38;;;7.90;;
35803;SDS011;21924;51.934;7.414;2024-01-15T09:07:51;13.88;;;9.13;;
35803;SDS011;21924;51.934;7.414;2024-01-15T09:10:36;22.13;;;9.07;;
35803;SDS011;21924;51.934;7.414;2024-01-15T09:13:20;24.08;;;9.70;;
35803;SDS011;21924;51.934;7.414;2024-01-15T09:16:04;15.25;;;9.07;;
35803;SDS011;21924;51.934;7.414;2024-01-15T09:18:49;11.65;;;8.10;;
35803;SDS011;21924;51.934;7.414;2024-01-15T09:21:33;17.80;;;8.85;;
35803;SDS011;21924;51.934;7.414;2024-01-15T09:24:17;23.35;;;9.63;;
35803;SDS011;21924;51.934;7.414;2024-01-15T09:27:01;19.23;;;9.95;;
35803;SDS011;21924;51.934;7.414;2024-01-15T09:29:46;13.50;;;9.13;;
35803;SDS011;21924;51.934;7.414;2024-01-15T09:32:30;15.82;;;8.50;;
35803;SDS011;21924;51.934;7.414;2024-01-15T09:35:16;18.55;;;9.35;;
35803;SDS011;21924;51.934;7.414;2024-01-15T09:38:00;15.02;;;9.20;;
35803;SDS011;21924;51.934;7.414;2024-01-15T09:40:45;14.45;;;8.57;;
35803;SDS011;21924;51.934;7.414;2024-01-15T09:43:30;13.95;;;9.75;;
35803;SDS011;21924;51.934;7.414;2024-01-15T09:46:15;19.15;;;8.57;;
35803;SDS011;21924;51.934;7.414;2024-01-15T09:49:00;20.10;;;9.40;;
35803;SDS011;21924;51.934;7.414;2024-01-15T09:51:45;14.88;;;9.50;;
35803;SDS011;21924;51.934;7.414;2024-01-15T09:54:31;21.42;;;9.43;;
35803;SDS011;21924;51.934;7.414;2024-01-15T09:57:16;18.10;;;9.05;;
35803;SDS011;21924;51.934;7.414;2024-01-15T10:00:01;16.10;;;8.55;;
35803;SDS011;21924;51.934;7.414;2024-01-15T10:02:50;14.27;;;8.13;;
35803;SDS011;21924;51.934;7.414;2024-01-15T10:05:37;15.75;;;7.72;;
35803;SDS011;21924;51.934;7.414;2024-01-15T10:08:22;14.57;;;8.23;;
35803;SDS011;21924;51.934;7.414;2024-01-15T10:11:08;12.77;;;7.35;;
35803;SDS011;21924;51.934;7.414;2024-01-15T10:13:53;14.50;;;7.05;;
35803;SDS011;21924;51.934;7.414;2024-01-15T10:16:40;11.70;;;7.90;;
35803;SDS011;21924;51.934;7.414;2024-01-15T10:19:25;12.95;;;7.07;;
35803;SDS011;21924;51.934;7.414;2024-01-15T10:22:09;9.38;;;6.55;;
35803;SDS011;21924;51.934;7.414;2024-01-15T10:24:53;12.50;;;7.68;;
35803;SDS011;21924;51.934;7.414;2024-01-15T10:27:38;12.73;;;6.57;;
35803;SDS011;21924;51.934;7.414;2024-01-15T10:30:22;9.10;;;6.22;;
35803;SDS011;21924;51.934;7.414;2024-01-15T10:33:08;12.35;;;7.40;;
35803;SDS011;21924;51.934;7.414;2024-01-15T10:35:55;11.20;;;7.35;;
35803;SDS011;21924;51.934;7.414;2024-01-15T10:39:01;9.35;;;5.78;;
35803;SDS011;21924;51.934;7.414;2024-01-15T10:41:46;13.77;;;6.73;;
35803;SDS011;21924;51.934;7.414;2024-01-15T10:44:30;15.05;;;6.10;;
35803;SDS011;21924;51.934;7.414;2024-01-15T10:47:17;10.07;;;6.53;;
35803;SDS011;21924;51.934;7.414;2024-01-15T10:50:03;10.40;;;6.15;;
35803;SDS011;21924;51.934;7.414;2024-01-15T10:52:50;10.27;;;5.88;;
35803;SDS011;21924;51.934;7.414;2024-01-15T10:55:36;7.15;;;5.03;;
35803;SDS011;21924;51.934;7.414;2024-01-15T10:58:34;10.27;;;5.53;;
35803;SDS011;21924;51.934;7.414;2024-01-15T11:01:30;11.25;;;5.78;;
35803;SDS011;21924;51.934;7.414;2024-01-15T11:04:15;8.52;;;5.68;;
35803;SDS011;21924;51.934;7.414;2024-01-15T11:07:01;9.93;;;4.72;;
35803;SDS011;21924;51.934;7.414;2024-01-15T11:09:47;5.72;;;5.13;;
35803;SDS011;21924;51.934;7.414;2024-01-15T11:13:04;9.20;;;5.03;;
35803;SDS011;21924;51.934;7.414;2024-01-15T11:15:57;12.65;;;5.28;;
35803;SDS011;21924;51.934;7.414;2024-01-15T11:19:06;15.77;;;4.72;;
35803;SDS011;21924;51.934;7.414;2024-01-15T11:21:51;5.13;;;4.60;;
35803;SDS011;21924;51.934;7.414;2024-01-15T11:24:54;8.73;;;4.32;;
35803;SDS011;21924;51.934;7.414;2024-01-15T11:27:50;8.88;;;5.00;;
35803;SDS011;21924;51.934;7.414;2024-01-15T11:30:56;7.50;;;4.53;;
35803;SDS011;21924;51.934;7.414;2024-01-15T11:33:47;5.05;;;4.43;;
35803;SDS011;21924;51.934;7.414;2024-01-15T11:42:16;12.27;;;5.95;;
35803;SDS011;21924;51.934;7.414;2024-01-15T11:45:02;10.23;;;5.15;;
35803;SDS011;21924;51.934;7.414;2024-01-15T11:50:55;5.95;;;4.18;;
35803;SDS011;21924;51.934;7.414;2024-01-15T11:53:48;11.40;;;5.10;;
35803;SDS011;21924;51.934;7.414;2024-01-15T11:56:36;8.55;;;5.10;;
35803;SDS011;21924;51.934;7.414;2024-01-15T11:59:20;9.80;;;4.90;;
35803;SDS011;21924;51.934;7.414;2024-01-15T12:02:05;8.27;;;4.95;;
35803;SDS011;21924;51.934;7.414;2024-01-15T12:04:49;12.57;;;4.95;;
35803;SDS011;21924;51.934;7.414;2024-01-15T12:07:33;8.05;;;5.30;;
35803;SDS011;21924;51.934;7.414;2024-01-15T12:10:21;10.95;;;4.45;;
35803;SDS011;21924;51.934;7.414;2024-01-15T12:13:15;11.00;;;4.88;;
35803;SDS011;21924;51.934;7.414;2024-01-15T13:18:41;8.75;;;4.68;;
35803;SDS011;21924;51.934;7.414;2024-01-15T14:01:32;3.53;;;3.33;;
35803;SDS011;21924;51.934;7.414;2024-01-15T14:59:45;5.03;;;4.60;;
35803;SDS011;21924;51.934;7.414;2024-01-15T15:09:47;5.80;;;5.00;;
35803;SDS011;21924;51.934;7.414;2024-01-15T15:20:12;8.60;;;4.85;;
35803;SDS011;21924;51.934;7.414;2024-01-15T15:22:58;5.22;;;4.60;;
35803;SDS011;21924;51.934;7.414;2024-01-15T15:36:49;9.30;;;4.78;;
35803;SDS011;21924;51.934;7.414;2024-01-15T16:04:51;11.23;;;5.15;;
35803;SDS011;21924;51.934;7.414;2024-01-15T16:14:54;4.85;;;4.45;;
35803;SDS011;21924;51.934;7.414;2024-01-15T16:50:56;21.50;;;7.47;;
35803;SDS011;21924;51.934;7.414;2024-01-15T17:08:01;7.80;;;4.20;;
35803;SDS011;21924;51.934;7.414;2024-01-15T17:57:57;16.55;;;6.82;;
35803;SDS011;21924;51.934;7.414;2024-01-15T18:07:33;15.20;;;7.05;;
35803;SDS011;21924;51.934;7.414;2024-01-15T18:11:05;9.43;;;6.18;;
35803;SDS011;21924;51.934;7.414;2024-01-15T18:17:24;15.10;;;6.60;;
35803;SDS011;21924;51.934;7.414;2024-01-15T18:20:22;9.40;;;5.63;;
35803;SDS011;21924;51.934;7.414;2024-01-15T18:23:12;13.27;;;5.85;;
35803;SDS011;21924;51.934;7.414;2024-01-15T18:25:57;11.82;;;7.03;;
35803;SDS011;21924;51.934;7.414;2024-01-15T18:28:46;9.75;;;6.88;;
35803;SDS011;21924;51.934;7.414;2024-01-15T18:31:30;11.80;;;6.18;;
35803;SDS011;21924;51.934;7.414;2024-01-15T18:34:15;6.22;;;5.15;;
35803;SDS011;21924;51.934;7.414;2024-01-15T18:36:59;10.07;;;5.07;;
35803;SDS011;21924;51.934;7.414;2024-01-15T18:39:46;6.60;;;4.72;;
35803;SDS011;21924;51.934;7.414;2024-01-15T18:42:30;6.50;;;4.53;;
35803;SDS011;21924;51.934;7.414;2024-01-15T18:45:15;9.32;;;4.97;;
35803;SDS011;21924;51.934;7.414;2024-01-15T18:47:59;10.40;;;5.32;;
35803;SDS011;21924;51.934;7.414;2024-01-15T18:50:43;14.98;;;5.13;;
35803;SDS011;21924;51.934;7.414;2024-01-15T18:53:27;10.27;;;7.22;;
35803;SDS011;21924;51.934;7.414;2024-01-15T18:56:11;16.08;;;9.77;;
35803;SDS011;21924;51.934;7.414;2024-01-15T18:58:57;17.33;;;8.30;;
35803;SDS011;21924;51.934;7.414;2024-01-15T19:01:41;11.45;;;6.50;;
35803;SDS011;21924;51.934;7.414;2024-01-15T19:04:26;9.75;;;6.30;;
35803;SDS011;21924;51.934;7.414;2024-01-15T19:07:10;11.20;;;5.75;;
35803;SDS011;21924;51.934;7.414;2024-01-15T19:13:07;28.67;;;8.60;;
35803;SDS011;21924;51.934;7.414;2024-01-15T19:20:47;13.65;;;6.00;;
35803;SDS011;21924;51.934;7.414;2024-01-15T19:23:39;14.13;;;6.75;;
35803;SDS011;21924;51.934;7.414;2024-01-15T19:26:24;21.75;;;8.55;;
35803;SDS011;21924;51.934;7.414;2024-01-15T19:30:28;9.18;;;6.75;;
35803;SDS011;21924;51.934;7.414;2024-01-15T19:33:56;12.70;;;6.43;;
35803;SDS011;21924;51.934;7.414;2024-01-15T19:36:49;12.38;;;6.50;;
35803;SDS011;21924;51.934;7.414;2024-01-15T19:40:11;6.32;;;4.97;;
35803;SDS011;21924;51.934;7.414;2024-01-15T19:42:57;7.97;;;5.13;;
35803;SDS011;21924;51.934;7.414;2024-01-15T19:45:41;8.60;;;5.88;;
35803;SDS011;21924;51.934;7.414;2024-01-15T19:48:29;10.75;;;6.40;;
35803;SDS011;21924;51.934;7.414;2024-01-15T19:53:03;6.38;;;4.97;;
35803;SDS011;21924;51.934;7.414;2024-01-15T19:56:00;17.05;;;9.23;;
35803;SDS011;21924;51.934;7.414;2024-01-15T19:59:09;22.55;;;12.82;;
35803;SDS011;21924;51.934;7.414;2024-01-15T20:02:11;20.05;;;10.70;;
35803;SDS011;21924;51.934;7.414;2024-01-15T20:05:14;12.00;;;8.57;;
35803;SDS011;21924;51.934;7.414;2024-01-15T20:08:18;17.25;;;8.38;;
35803;SDS011;21924;51.934;7.414;2024-01-15T20:14:38;10.82;;;6.45;;
35803;SDS011;21924;51.934;7.414;2024-01-15T20:25:15;10.52;;;6.68;;
35803;SDS011;21924;51.934;7.414;2024-01-15T20:28:16;10.48;;;6.32;;
35803;SDS011;21924;51.934;7.414;2024-01-15T20:31:16;8.77;;;6.18;;
35803;SDS011;21924;51.934;7.414;2024-01-15T20:41:22;25.20;;;7.93;;
35803;SDS011;21924;51.934;7.414;2024-01-15T20:44:06;17.02;;;8.38;;
35803;SDS011;21924;51.934;7.414;2024-01-15T20:46:58;17.63;;;6.45;;
35803;SDS011;21924;51.934;7.414;2024-01-15T21:07:09;18.48;;;6.82;;
35803;SDS011;21924;51.934;7.414;2024-01-15T21:10:00;7.50;;;5.70;;
35803;SDS011;21924;51.934;7.414;2024-01-15T21:16:22;17.77;;;6.32;;
35803;SDS011;21924;51.934;7.414;2024-01-15T21:19:21;15.75;;;6.30;;
35803;SDS011;21924;51.934;7.414;2024-01-15T21:25:52;16.05;;;7.18;;
35803;SDS011;21924;51.934;7.414;2024-01-15T21:32:23;17.42;;;8.13;;
35803;SDS011;21924;51.934;7.414;2024-01-15T21:35:09;7.03;;;5.93;;
35803;SDS011;21924;51.934;7.414;2024-01-15T21:41:17;15.38;;;6.50;;
35803;SDS011;21924;51.934;7.414;2024-01-15T21:44:01;14.82;;;5.68;;
35803;SDS011;21924;51.934;7.414;2024-01-15T21:51:16;12.57;;;5.30;;
35803;SDS011;21924;51.934;7.414;2024-01-15T21:58:20;8.65;;;5.22;;
35803;SDS011;21924;51.934;7.414;2024-01-15T22:01:12;12.77;;;5.25;;
35803;SDS011;21924;51.934;7.414;2024-01-15T22:04:00;9.85;;;4.85;;
35803;SDS011;21924;51.934;7.414;2024-01-15T22:07:11;10.65;;;5.25;;
35803;SDS011;21924;51.934;7.414;2024-01-15T22:09:57;7.35;;;4.82;;
35803;SDS011;21924;51.934;7.414;2024-01-15T22:12:41;9.32;;;5.18;;
35803;SDS011;21924;51.934;7.414;2024-01-15T22:15:26;13.00;;;6.03;;
35803;SDS011;21924;51.934;7.414;2024-01-15T22:18:10;8.82;;;5.55;;
35803;SDS011;21924;51.934;7.414;2024-01-15T22:20:55;18.73;;;6.40;;
35803;SDS011;21924;51.934;7.414;2024-01-15T22:23:40;13.85;;;5.97;;
35803;SDS011;21924;51.934;7.414;2024-01-15T22:26:24;12.68;;;5.90;;
35803;SDS011;21924;51.934;7.414;2024-01-15T22:29:09;12.88;;;6.57;;
35803;SDS011;21924;51.934;7.414;2024-01-15T22:31:53;16.92;;;8.30;;
35803;SDS011;21924;51.934;7.414;2024-01-15T22:34:37;12.07;;;7.90;;
35803;SDS011;21924;51.934;7.414;2024-01-15T22:37:21;26.70;;;8.48;;
35803;SDS011;21924;51.934;7.414;2024-01-15T22:40:06;12.23;;;8.18;;
35803;SDS011;21924;51.934;7.414;2024-01-15T22:42:53;13.65;;;8.20;;
35803;SDS011;21924;51.934;7.414;2024-01-15T22:45:37;19.50;;;7.95;;
35803;SDS011;21924;51.934;7.414;2024-01-15T22:48:21;13.20;;;7.45;;
35803;SDS011;21924;51.934;7.414;2024-01-15T22:51:05;12.27;;;8.05;;
35803;SDS011;21924;51.934;7.414;2024-01-15T22:53:50;20.23;;;9.10;;
35803;SDS011;21924;51.934;7.414;2024-01-15T22:56:34;17.80;;;9.30;;
35803;SDS011;21924;51.934;7.414;2024-01-15T22:59:19;22.83;;;9.57;;
35803;SDS011;21924;51.934;7.414;2024-01-15T23:02:03;9.75;;;8.05;;
35803;SDS011;21924;51.934;7.414;2024-01-15T23:04:47;12.18;;;7.20;;
35803;SDS011;21924;51.934;7.414;2024-01-15T23:07:32;19.80;;;8.65;;
35803;SDS011;21924;51.934;7.414;2024-01-15T23:10:16;16.63;;;8.40;;
35803;SDS011;21924;51.934;7.414;2024-01-15T23:13:00;20.25;;;10.60;;
35803;SDS011;21924;51.934;7.414;2024-01-15T23:15:44;18.08;;;8.85;;
35803;SDS011;21924;51.934;7.414;2024-01-15T23:18:29;19.50;;;9.40;;